sensor_id;sensor_type;location;lat;lon;timestamp;pressure;altitude;pressure_sealevel;temperature;humidity
71903;BME280;59778;50.310;18.780;2022-10-12T00:01:20;99867.56;;;4.47;84.83
71903;BME280;59778;50.310;18.780;2022-10-12T00:16:41;99868.69;;;4.44;84.67
71903;BME280;59778;50.310;18.780;2022-10-12T00:32:02;99876.56;;;4.36;84.95
71903;BME280;59778;50.310;18.780;2022-10-12T00:47:33;99871.91;;;4.38;84.14
71903;BME280;59778;50.310;18.780;2022-10-12T01:02:56;99865.25;;;4.21;84.69
71903;BME280;59778;50.310;18.780;2022-10-12T01:18:21;99867.88;;;4.01;85.46
71903;BME280;59778;50.310;18.780;2022-10-12T01:33:47;99852.69;;;4.11;84.34
71903;BME280;59778;50.310;18.780;2022-10-12T01:49:13;99870.47;;;3.91;84.29
71903;BME280;59778;50.310;18.780;2022-10-12T02:20:04;99863.31;;;3.69;84.64
71903;BME280;59778;50.310;18.780;2022-10-12T02:50:56;99870.03;;;3.64;83.67
71903;BME280;59778;50.310;18.780;2022-10-12T03:06:19;99869.56;;;3.59;83.80
71903;BME280;59778;50.310;18.780;2022-10-12T03:21:41;99863.72;;;3.43;84.37
71903;BME280;59778;50.310;18.780;2022-10-12T03:37:02;99872.53;;;3.22;85.22
71903;BME280;59778;50.310;18.780;2022-10-12T03:52:23;99864.13;;;3.16;85.89
71903;BME280;59778;50.310;18.780;2022-10-12T04:07:44;99879.31;;;3.04;85.56
71903;BME280;59778;50.310;18.780;2022-10-12T04:23:05;99885.91;;;2.89;85.07
71903;BME280;59778;50.310;18.780;2022-10-12T04:38:27;99894.81;;;2.90;85.19
71903;BME280;59778;50.310;18.780;2022-10-12T04:53:48;99888.31;;;2.81;85.61
71903;BME280;59778;50.310;18.780;2022-10-12T05:09:09;99892.00;;;2.91;86.52
71903;BME280;59778;50.310;18.780;2022-10-12T05:24:30;99906.63;;;2.87;87.46
71903;BME280;59778;50.310;18.780;2022-10-12T05:39:51;99908.72;;;2.95;88.81
71903;BME280;59778;50.310;18.780;2022-10-12T05:55:12;99926.69;;;3.50;88.02
71903;BME280;59778;50.310;18.780;2022-10-12T06:10:43;99923.28;;;3.59;90.48
71903;BME280;59778;50.310;18.780;2022-10-12T06:26:05;99925.66;;;4.49;87.80
71903;BME280;59778;50.310;18.780;2022-10-12T06:41:26;99925.88;;;5.19;88.42
71903;BME280;59778;50.310;18.780;2022-10-12T06:56:47;99914.06;;;5.72;88.27
71903;BME280;59778;50.310;18.780;2022-10-12T07:12:08;99927.44;;;6.32;87.42
71903;BME280;59778;50.310;18.780;2022-10-12T07:27:29;99931.03;;;6.81;91.42
71903;BME280;59778;50.310;18.780;2022-10-12T07:42:50;99922.09;;;7.83;91.03
71903;BME280;59778;50.310;18.780;2022-10-12T07:58:12;99923.88;;;8.99;84.95
71903;BME280;59778;50.310;18.780;2022-10-12T08:13:34;99918.53;;;10.27;81.85
71903;BME280;59778;50.310;18.780;2022-10-12T08:28:55;99909.97;;;10.96;76.79
71903;BME280;59778;50.310;18.780;2022-10-12T09:00:14;99907.28;;;13.44;68.99
71903;BME280;59778;50.310;18.780;2022-10-12T09:15:48;99893.94;;;14.08;64.89
71903;BME280;59778;50.310;18.780;2022-10-12T09:46:55;99877.94;;;15.47;55.09
71903;BME280;59778;50.310;18.780;2022-10-12T10:02:20;99877.69;;;15.42;49.05
71903;BME280;59778;50.310;18.780;2022-10-12T10:17:47;99869.03;;;16.00;50.18
71903;BME280;59778;50.310;18.780;2022-10-12T10:33:19;99873.63;;;16.34;48.91
71903;BME280;59778;50.310;18.780;2022-10-12T10:48:56;99865.13;;;16.83;47.73
71903;BME280;59778;50.310;18.780;2022-10-12T11:04:23;99848.66;;;17.56;46.58
71903;BME280;59778;50.310;18.780;2022-10-12T11:20:00;99837.38;;;17.97;44.61
71903;BME280;59778;50.310;18.780;2022-10-12T11:50:49;99815.13;;;16.94;42.25
71903;BME280;59778;50.310;18.780;2022-10-12T12:37:32;99796.94;;;16.61;43.91
71903;BME280;59778;50.310;18.780;2022-10-12T12:53:15;99782.97;;;17.41;42.95
71903;BME280;59778;50.310;18.780;2022-10-12T13:09:05;99761.59;;;17.63;44.21
71903;BME280;59778;50.310;18.780;2022-10-12T13:24:49;99766.88;;;17.64;42.17
71903;BME280;59778;50.310;18.780;2022-10-12T13:40:38;99757.88;;;17.95;42.30
71903;BME280;59778;50.310;18.780;2022-10-12T14:11:25;99747.38;;;16.82;42.46
71903;BME280;59778;50.310;18.780;2022-10-12T14:27:00;99730.41;;;16.32;44.73
71903;BME280;59778;50.310;18.780;2022-10-12T14:42:32;99727.63;;;15.99;48.28
71903;BME280;59778;50.310;18.780;2022-10-12T14:57:54;99718.16;;;15.54;47.87
71903;BME280;59778;50.310;18.780;2022-10-12T15:13:15;99713.38;;;14.94;51.79
71903;BME280;59778;50.310;18.780;2022-10-12T15:28:37;99728.75;;;14.68;55.50
71903;BME280;59778;50.310;18.780;2022-10-12T15:43:58;99730.44;;;13.69;61.84
71903;BME280;59778;50.310;18.780;2022-10-12T15:59:19;99743.97;;;12.74;65.90
71903;BME280;59778;50.310;18.780;2022-10-12T16:14:40;99739.06;;;12.10;68.50
71903;BME280;59778;50.310;18.780;2022-10-12T16:30:04;99739.72;;;11.11;72.52
71903;BME280;59778;50.310;18.780;2022-10-12T16:45:26;99741.22;;;10.26;75.49
71903;BME280;59778;50.310;18.780;2022-10-12T17:00:47;99741.09;;;9.70;77.38
71903;BME280;59778;50.310;18.780;2022-10-12T17:16:08;99735.09;;;9.50;76.82
71903;BME280;59778;50.310;18.780;2022-10-12T17:31:48;99748.16;;;9.13;78.07
71903;BME280;59778;50.310;18.780;2022-10-12T17:47:10;99752.56;;;8.80;78.07
71903;BME280;59778;50.310;18.780;2022-10-12T18:02:31;99745.16;;;8.38;79.68
71903;BME280;59778;50.310;18.780;2022-10-12T18:17:52;99743.84;;;8.07;80.15
71903;BME280;59778;50.310;18.780;2022-10-12T18:33:15;99744.38;;;7.75;80.22
71903;BME280;59778;50.310;18.780;2022-10-12T18:48:37;99760.41;;;7.59;80.91
71903;BME280;59778;50.310;18.780;2022-10-12T19:04:00;99746.78;;;7.33;81.17
71903;BME280;59778;50.310;18.780;2022-10-12T19:19:22;99754.06;;;6.96;82.80
71903;BME280;59778;50.310;18.780;2022-10-12T19:34:44;99761.91;;;6.89;82.35
71903;BME280;59778;50.310;18.780;2022-10-12T19:50:14;99760.56;;;6.66;83.48
71903;BME280;59778;50.310;18.780;2022-10-12T20:05:35;99767.28;;;6.43;83.12
71903;BME280;59778;50.310;18.780;2022-10-12T20:20:57;99758.63;;;6.30;84.55
71903;BME280;59778;50.310;18.780;2022-10-12T20:36:21;99756.09;;;6.19;82.13
71903;BME280;59778;50.310;18.780;2022-10-12T20:51:43;99754.41;;;6.08;83.57
71903;BME280;59778;50.310;18.780;2022-10-12T21:07:04;99758.22;;;5.86;85.42
71903;BME280;59778;50.310;18.780;2022-10-12T21:22:26;99749.09;;;5.78;83.46
71903;BME280;59778;50.310;18.780;2022-10-12T21:37:47;99744.28;;;5.62;83.75
71903;BME280;59778;50.310;18.780;2022-10-12T21:53:08;99741.13;;;5.47;83.21
71903;BME280;59778;50.310;18.780;2022-10-12T22:08:29;99743.78;;;5.28;83.41
71903;BME280;59778;50.310;18.780;2022-10-12T22:23:50;99748.16;;;5.19;83.80
71903;BME280;59778;50.310;18.780;2022-10-12T22:39:11;99729.09;;;5.02;84.45
71903;BME280;59778;50.310;18.780;2022-10-12T22:54:33;99728.41;;;5.00;83.09
71903;BME280;59778;50.310;18.780;2022-10-12T23:09:54;99723.66;;;4.83;83.07
71903;BME280;59778;50.310;18.780;2022-10-12T23:25:15;99726.13;;;4.65;85.88
71903;BME280;59778;50.310;18.780;2022-10-12T23:40:36;99715.88;;;4.59;85.12
71903;BME280;59778;50.310;18.780;2022-10-12T23:55:57;99712.84;;;4.43;85.42
